sensor_id;sensor_type;location;lat;lon;timestamp;temperature;humidity
18426;DHT22;9340;48.756;9.226;2023-10-08T00:01:41;12.30;99.90
18426;DHT22;9340;48.756;9.226;2023-10-08T00:04:10;12.40;99.90
18426;DHT22;9340;48.756;9.226;2023-10-08T00:06:37;12.40;99.90
18426;DHT22;9340;48.756;9.226;2023-10-08T00:09:04;12.40;99.90
18426;DHT22;9340;48.756;9.226;2023-10-08T00:11:37;12.40;99.90
18426;DHT22;9340;48.756;9.226;2023-10-08T00:14:04;12.40;99.90
18426;DHT22;9340;48.756;9.226;2023-10-08T00:16:35;12.40;99.90
18426;DHT22;9340;48.756;9.226;2023-10-08T00:19:05;12.50;99.90
18426;DHT22;9340;48.756;9.226;2023-10-08T00:21:35;12.50;99.90
18426;DHT22;9340;48.756;9.226;2023-10-08T00:24:04;12.60;99.90
18426;DHT22;9340;48.756;9.226;2023-10-08T00:26:33;12.70;99.90
18426;DHT22;9340;48.756;9.226;2023-10-08T00:29:06;12.70;99.90
18426;DHT22;9340;48.756;9.226;2023-10-08T00:31:41;12.70;99.90
18426;DHT22;9340;48.756;9.226;2023-10-08T00:34:11;12.70;99.90
18426;DHT22;9340;48.756;9.226;2023-10-08T00:36:40;12.70;99.90
18426;DHT22;9340;48.756;9.226;2023-10-08T00:39:08;12.80;99.90
18426;DHT22;9340;48.756;9.226;2023-10-08T00:41:40;12.80;99.90
18426;DHT22;9340;48.756;9.226;2023-10-08T00:44:08;12.80;99.90
18426;DHT22;9340;48.756;9.226;2023-10-08T00:46:38;12.90;99.90
18426;DHT22;9340;48.756;9.226;2023-10-08T00:49:08;12.80;99.90
18426;DHT22;9340;48.756;9.226;2023-10-08T00:51:52;12.90;99.90
18426;DHT22;9340;48.756;9.226;2023-10-08T00:54:43;12.90;99.90
18426;DHT22;9340;48.756;9.226;2023-10-08T00:57:20;12.90;99.90
18426;DHT22;9340;48.756;9.226;2023-10-08T00:59:48;12.90;99.90
18426;DHT22;9340;48.756;9.226;2023-10-08T01:02:19;13.00;99.90
18426;DHT22;9340;48.756;9.226;2023-10-08T01:04:50;13.00;99.90
18426;DHT22;9340;48.756;9.226;2023-10-08T01:07:18;13.00;99.90
18426;DHT22;9340;48.756;9.226;2023-10-08T01:09:45;13.00;99.90
18426;DHT22;9340;48.756;9.226;2023-10-08T01:12:19;13.10;99.90
18426;DHT22;9340;48.756;9.226;2023-10-08T01:14:59;13.10;99.90
18426;DHT22;9340;48.756;9.226;2023-10-08T01:17:33;13.10;99.90
18426;DHT22;9340;48.756;9.226;2023-10-08T01:20:11;13.00;99.90
18426;DHT22;9340;48.756;9.226;2023-10-08T01:22:48;13.00;99.90
18426;DHT22;9340;48.756;9.226;2023-10-08T01:25:15;12.90;99.90
18426;DHT22;9340;48.756;9.226;2023-10-08T01:27:49;12.80;99.90
18426;DHT22;9340;48.756;9.226;2023-10-08T01:30:16;12.70;99.90
18426;DHT22;9340;48.756;9.226;2023-10-08T01:32:44;12.60;99.90
18426;DHT22;9340;48.756;9.226;2023-10-08T01:35:11;12.60;99.90
18426;DHT22;9340;48.756;9.226;2023-10-08T01:37:49;12.40;99.90
18426;DHT22;9340;48.756;9.226;2023-10-08T01:40:18;12.40;99.90
18426;DHT22;9340;48.756;9.226;2023-10-08T01:42:45;12.30;99.90
18426;DHT22;9340;48.756;9.226;2023-10-08T01:45:11;12.30;99.90
18426;DHT22;9340;48.756;9.226;2023-10-08T01:47:44;12.40;99.90
18426;DHT22;9340;48.756;9.226;2023-10-08T01:50:16;12.40;99.90
18426;DHT22;9340;48.756;9.226;2023-10-08T01:52:46;12.40;99.90
18426;DHT22;9340;48.756;9.226;2023-10-08T01:55:14;12.40;99.90
18426;DHT22;9340;48.756;9.226;2023-10-08T01:57:43;12.40;99.90
18426;DHT22;9340;48.756;9.226;2023-10-08T02:00:11;12.40;99.90
18426;DHT22;9340;48.756;9.226;2023-10-08T02:02:39;12.30;99.90
18426;DHT22;9340;48.756;9.226;2023-10-08T02:05:07;12.30;99.90
18426;DHT22;9340;48.756;9.226;2023-10-08T02:07:35;12.30;99.90
18426;DHT22;9340;48.756;9.226;2023-10-08T02:10:01;12.20;99.90
18426;DHT22;9340;48.756;9.226;2023-10-08T02:12:30;12.10;99.90
18426;DHT22;9340;48.756;9.226;2023-10-08T02:14:57;12.00;99.90
18426;DHT22;9340;48.756;9.226;2023-10-08T02:17:24;12.00;99.90
18426;DHT22;9340;48.756;9.226;2023-10-08T02:19:50;11.90;99.90
18426;DHT22;9340;48.756;9.226;2023-10-08T02:22:17;11.90;99.90
18426;DHT22;9340;48.756;9.226;2023-10-08T02:24:45;11.80;99.90
18426;DHT22;9340;48.756;9.226;2023-10-08T02:27:11;11.80;99.90
18426;DHT22;9340;48.756;9.226;2023-10-08T02:29:42;11.70;99.90
18426;DHT22;9340;48.756;9.226;2023-10-08T02:32:08;11.70;99.90
18426;DHT22;9340;48.756;9.226;2023-10-08T02:34:35;11.60;99.90
18426;DHT22;9340;48.756;9.226;2023-10-08T02:37:02;11.50;99.90
18426;DHT22;9340;48.756;9.226;2023-10-08T02:39:30;11.50;99.90
18426;DHT22;9340;48.756;9.226;2023-10-08T02:41:58;11.50;99.90
18426;DHT22;9340;48.756;9.226;2023-10-08T02:44:25;11.50;99.90
18426;DHT22;9340;48.756;9.226;2023-10-08T02:46:54;11.40;99.90
18426;DHT22;9340;48.756;9.226;2023-10-08T02:49:21;11.30;99.90
18426;DHT22;9340;48.756;9.226;2023-10-08T02:51:50;11.30;99.90
18426;DHT22;9340;48.756;9.226;2023-10-08T02:54:17;11.20;99.90
18426;DHT22;9340;48.756;9.226;2023-10-08T02:56:46;11.20;99.90
18426;DHT22;9340;48.756;9.226;2023-10-08T02:59:14;11.20;99.90
18426;DHT22;9340;48.756;9.226;2023-10-08T03:01:41;11.20;99.90
18426;DHT22;9340;48.756;9.226;2023-10-08T03:04:09;11.20;99.90
18426;DHT22;9340;48.756;9.226;2023-10-08T03:06:44;11.10;99.90
18426;DHT22;9340;48.756;9.226;2023-10-08T03:09:14;11.10;99.90
18426;DHT22;9340;48.756;9.226;2023-10-08T03:11:46;11.00;99.90
18426;DHT22;9340;48.756;9.226;2023-10-08T03:14:14;11.10;99.90
18426;DHT22;9340;48.756;9.226;2023-10-08T03:16:48;11.10;99.90
18426;DHT22;9340;48.756;9.226;2023-10-08T03:19:17;11.00;99.90
18426;DHT22;9340;48.756;9.226;2023-10-08T03:21:46;11.00;99.90
18426;DHT22;9340;48.756;9.226;2023-10-08T03:24:16;11.00;99.90
18426;DHT22;9340;48.756;9.226;2023-10-08T03:27:13;11.00;99.90
18426;DHT22;9340;48.756;9.226;2023-10-08T03:29:46;10.90;99.90
18426;DHT22;9340;48.756;9.226;2023-10-08T03:32:13;10.90;99.90
18426;DHT22;9340;48.756;9.226;2023-10-08T03:34:45;10.90;99.90
18426;DHT22;9340;48.756;9.226;2023-10-08T03:37:13;10.90;99.90
18426;DHT22;9340;48.756;9.226;2023-10-08T03:39:46;10.90;99.90
18426;DHT22;9340;48.756;9.226;2023-10-08T03:42:26;10.90;99.90
18426;DHT22;9340;48.756;9.226;2023-10-08T03:44:59;11.00;99.90
18426;DHT22;9340;48.756;9.226;2023-10-08T03:47:36;11.00;99.90
18426;DHT22;9340;48.756;9.226;2023-10-08T03:50:07;11.00;99.90
18426;DHT22;9340;48.756;9.226;2023-10-08T03:52:35;10.90;99.90
18426;DHT22;9340;48.756;9.226;2023-10-08T03:55:04;11.00;99.90
18426;DHT22;9340;48.756;9.226;2023-10-08T03:57:38;10.90;99.90
18426;DHT22;9340;48.756;9.226;2023-10-08T04:00:09;10.80;99.90
18426;DHT22;9340;48.756;9.226;2023-10-08T04:02:43;10.90;99.90
18426;DHT22;9340;48.756;9.226;2023-10-08T04:05:22;10.90;99.90
18426;DHT22;9340;48.756;9.226;2023-10-08T04:07:53;10.80;99.90
18426;DHT22;9340;48.756;9.226;2023-10-08T04:10:42;10.80;99.90
18426;DHT22;9340;48.756;9.226;2023-10-08T04:13:27;10.80;99.90
18426;DHT22;9340;48.756;9.226;2023-10-08T04:15:54;10.80;99.90
18426;DHT22;9340;48.756;9.226;2023-10-08T04:18:21;10.70;99.90
18426;DHT22;9340;48.756;9.226;2023-10-08T04:20:49;10.70;99.90
18426;DHT22;9340;48.756;9.226;2023-10-08T04:23:30;10.70;99.90
18426;DHT22;9340;48.756;9.226;2023-10-08T04:25:57;10.60;99.90
18426;DHT22;9340;48.756;9.226;2023-10-08T04:28:24;10.60;99.90
18426;DHT22;9340;48.756;9.226;2023-10-08T04:30:54;10.60;99.90
18426;DHT22;9340;48.756;9.226;2023-10-08T04:33:27;10.70;99.90
18426;DHT22;9340;48.756;9.226;2023-10-08T04:35:58;10.80;99.90
18426;DHT22;9340;48.756;9.226;2023-10-08T04:38:27;10.80;99.90
18426;DHT22;9340;48.756;9.226;2023-10-08T04:40:56;10.90;99.90
18426;DHT22;9340;48.756;9.226;2023-10-08T04:43:27;10.80;99.90
18426;DHT22;9340;48.756;9.226;2023-10-08T04:45:56;10.90;99.90
18426;DHT22;9340;48.756;9.226;2023-10-08T04:48:24;10.90;99.90
18426;DHT22;9340;48.756;9.226;2023-10-08T04:50:52;10.90;99.90
18426;DHT22;9340;48.756;9.226;2023-10-08T04:53:26;10.90;99.90
18426;DHT22;9340;48.756;9.226;2023-10-08T04:55:58;10.90;99.90
18426;DHT22;9340;48.756;9.226;2023-10-08T04:58:30;10.90;99.90
18426;DHT22;9340;48.756;9.226;2023-10-08T05:01:02;10.90;99.90
18426;DHT22;9340;48.756;9.226;2023-10-08T05:03:43;10.90;99.90
18426;DHT22;9340;48.756;9.226;2023-10-08T05:06:22;10.90;99.90
18426;DHT22;9340;48.756;9.226;2023-10-08T05:09:10;11.00;99.90
18426;DHT22;9340;48.756;9.226;2023-10-08T05:11:38;10.90;99.90
18426;DHT22;9340;48.756;9.226;2023-10-08T05:14:32;10.90;99.90
18426;DHT22;9340;48.756;9.226;2023-10-08T05:17:05;10.80;99.90
18426;DHT22;9340;48.756;9.226;2023-10-08T05:19:37;10.80;99.90
18426;DHT22;9340;48.756;9.226;2023-10-08T05:22:27;10.70;99.90
18426;DHT22;9340;48.756;9.226;2023-10-08T05:25:11;10.70;99.90
18426;DHT22;9340;48.756;9.226;2023-10-08T05:27:52;10.70;99.90
18426;DHT22;9340;48.756;9.226;2023-10-08T05:30:34;10.70;99.90
18426;DHT22;9340;48.756;9.226;2023-10-08T05:33:05;10.70;99.90
18426;DHT22;9340;48.756;9.226;2023-10-08T05:35:49;10.70;99.90
18426;DHT22;9340;48.756;9.226;2023-10-08T05:38:22;10.70;99.90
18426;DHT22;9340;48.756;9.226;2023-10-08T05:41:04;10.70;99.90
18426;DHT22;9340;48.756;9.226;2023-10-08T05:43:38;10.80;99.90
18426;DHT22;9340;48.756;9.226;2023-10-08T05:46:37;10.70;99.90
18426;DHT22;9340;48.756;9.226;2023-10-08T05:49:16;10.70;99.90
18426;DHT22;9340;48.756;9.226;2023-10-08T05:52:04;10.80;99.90
18426;DHT22;9340;48.756;9.226;2023-10-08T05:54:48;10.80;99.90
18426;DHT22;9340;48.756;9.226;2023-10-08T05:57:41;10.90;99.90
18426;DHT22;9340;48.756;9.226;2023-10-08T06:00:12;10.90;99.90
18426;DHT22;9340;48.756;9.226;2023-10-08T06:02:57;11.00;99.90
18426;DHT22;9340;48.756;9.226;2023-10-08T06:05:58;11.00;99.90
18426;DHT22;9340;48.756;9.226;2023-10-08T06:08:48;11.00;99.90
18426;DHT22;9340;48.756;9.226;2023-10-08T06:11:16;11.10;99.90
18426;DHT22;9340;48.756;9.226;2023-10-08T06:13:54;11.10;99.90
18426;DHT22;9340;48.756;9.226;2023-10-08T06:16:26;11.20;99.90
18426;DHT22;9340;48.756;9.226;2023-10-08T06:19:07;11.20;99.90
18426;DHT22;9340;48.756;9.226;2023-10-08T06:21:35;11.20;99.90
18426;DHT22;9340;48.756;9.226;2023-10-08T06:24:02;11.30;99.90
18426;DHT22;9340;48.756;9.226;2023-10-08T06:26:34;11.40;99.90
18426;DHT22;9340;48.756;9.226;2023-10-08T06:29:05;11.40;99.90
18426;DHT22;9340;48.756;9.226;2023-10-08T06:31:44;11.40;99.90
18426;DHT22;9340;48.756;9.226;2023-10-08T06:34:16;11.40;99.90
18426;DHT22;9340;48.756;9.226;2023-10-08T06:36:43;11.40;99.90
18426;DHT22;9340;48.756;9.226;2023-10-08T06:39:09;11.40;99.90
18426;DHT22;9340;48.756;9.226;2023-10-08T06:41:43;11.50;99.90
18426;DHT22;9340;48.756;9.226;2023-10-08T06:44:13;11.50;99.90
18426;DHT22;9340;48.756;9.226;2023-10-08T06:46:41;11.60;99.90
18426;DHT22;9340;48.756;9.226;2023-10-08T06:49:09;11.60;99.90
18426;DHT22;9340;48.756;9.226;2023-10-08T06:51:38;11.60;99.90
18426;DHT22;9340;48.756;9.226;2023-10-08T06:54:07;11.70;99.90
18426;DHT22;9340;48.756;9.226;2023-10-08T06:56:36;11.80;99.90
18426;DHT22;9340;48.756;9.226;2023-10-08T06:59:04;11.80;99.90
18426;DHT22;9340;48.756;9.226;2023-10-08T07:01:33;11.90;99.90
18426;DHT22;9340;48.756;9.226;2023-10-08T07:04:05;11.90;99.90
18426;DHT22;9340;48.756;9.226;2023-10-08T07:06:37;11.90;99.90
18426;DHT22;9340;48.756;9.226;2023-10-08T07:09:05;12.00;99.90
18426;DHT22;9340;48.756;9.226;2023-10-08T07:11:39;12.20;99.90
18426;DHT22;9340;48.756;9.226;2023-10-08T07:14:10;12.30;99.90
18426;DHT22;9340;48.756;9.226;2023-10-08T07:16:40;12.40;99.90
18426;DHT22;9340;48.756;9.226;2023-10-08T07:19:07;12.60;99.90
18426;DHT22;9340;48.756;9.226;2023-10-08T07:21:45;12.80;99.90
18426;DHT22;9340;48.756;9.226;2023-10-08T07:24:12;12.90;99.90
18426;DHT22;9340;48.756;9.226;2023-10-08T07:26:43;13.30;99.90
18426;DHT22;9340;48.756;9.226;2023-10-08T07:29:13;13.60;99.90
18426;DHT22;9340;48.756;9.226;2023-10-08T07:31:44;14.10;99.90
18426;DHT22;9340;48.756;9.226;2023-10-08T07:34:15;14.50;99.90
18426;DHT22;9340;48.756;9.226;2023-10-08T07:36:52;14.80;99.90
18426;DHT22;9340;48.756;9.226;2023-10-08T07:39:20;15.20;99.90
18426;DHT22;9340;48.756;9.226;2023-10-08T07:41:52;15.40;99.90
18426;DHT22;9340;48.756;9.226;2023-10-08T07:44:20;15.60;99.90
18426;DHT22;9340;48.756;9.226;2023-10-08T07:46:49;15.80;99.90
18426;DHT22;9340;48.756;9.226;2023-10-08T07:49:16;15.80;99.90
18426;DHT22;9340;48.756;9.226;2023-10-08T07:51:43;15.90;99.90
18426;DHT22;9340;48.756;9.226;2023-10-08T07:54:17;16.00;99.90
18426;DHT22;9340;48.756;9.226;2023-10-08T07:56:45;16.10;99.90
18426;DHT22;9340;48.756;9.226;2023-10-08T07:59:13;16.30;99.90
18426;DHT22;9340;48.756;9.226;2023-10-08T08:01:42;16.50;99.90
18426;DHT22;9340;48.756;9.226;2023-10-08T08:04:10;16.60;99.90
18426;DHT22;9340;48.756;9.226;2023-10-08T08:06:47;16.80;99.90
18426;DHT22;9340;48.756;9.226;2023-10-08T08:09:15;16.80;99.90
18426;DHT22;9340;48.756;9.226;2023-10-08T08:11:45;16.90;99.90
18426;DHT22;9340;48.756;9.226;2023-10-08T08:14:12;16.90;99.90
18426;DHT22;9340;48.756;9.226;2023-10-08T08:16:42;17.10;99.90
18426;DHT22;9340;48.756;9.226;2023-10-08T08:19:13;17.20;99.90
18426;DHT22;9340;48.756;9.226;2023-10-08T08:21:41;16.90;99.90
18426;DHT22;9340;48.756;9.226;2023-10-08T08:24:11;16.90;99.90
18426;DHT22;9340;48.756;9.226;2023-10-08T08:26:38;16.80;99.90
18426;DHT22;9340;48.756;9.226;2023-10-08T08:29:10;16.60;99.90
18426;DHT22;9340;48.756;9.226;2023-10-08T08:31:40;16.60;99.90
18426;DHT22;9340;48.756;9.226;2023-10-08T08:34:13;16.80;99.90
18426;DHT22;9340;48.756;9.226;2023-10-08T08:36:45;17.00;99.90
18426;DHT22;9340;48.756;9.226;2023-10-08T08:39:14;17.10;99.90
18426;DHT22;9340;48.756;9.226;2023-10-08T08:41:58;17.00;99.90
18426;DHT22;9340;48.756;9.226;2023-10-08T08:44:27;16.90;99.90
18426;DHT22;9340;48.756;9.226;2023-10-08T08:46:56;16.80;99.90
18426;DHT22;9340;48.756;9.226;2023-10-08T08:49:26;16.90;99.90
18426;DHT22;9340;48.756;9.226;2023-10-08T08:51:55;16.90;99.90
18426;DHT22;9340;48.756;9.226;2023-10-08T08:54:26;17.10;99.90
18426;DHT22;9340;48.756;9.226;2023-10-08T08:56:56;17.40;99.90
18426;DHT22;9340;48.756;9.226;2023-10-08T08:59:25;17.50;99.90
18426;DHT22;9340;48.756;9.226;2023-10-08T09:01:56;17.60;99.90
18426;DHT22;9340;48.756;9.226;2023-10-08T09:04:29;17.60;99.90
18426;DHT22;9340;48.756;9.226;2023-10-08T09:06:59;17.70;99.90
18426;DHT22;9340;48.756;9.226;2023-10-08T09:09:31;17.60;99.90
18426;DHT22;9340;48.756;9.226;2023-10-08T09:11:58;17.70;99.90
18426;DHT22;9340;48.756;9.226;2023-10-08T09:14:27;17.70;99.90
18426;DHT22;9340;48.756;9.226;2023-10-08T09:16:57;17.80;99.90
18426;DHT22;9340;48.756;9.226;2023-10-08T09:19:25;18.00;99.90
18426;DHT22;9340;48.756;9.226;2023-10-08T09:22:04;18.30;99.90
18426;DHT22;9340;48.756;9.226;2023-10-08T09:24:31;18.50;99.90
18426;DHT22;9340;48.756;9.226;2023-10-08T09:27:02;18.90;99.90
18426;DHT22;9340;48.756;9.226;2023-10-08T09:29:29;19.30;99.90
18426;DHT22;9340;48.756;9.226;2023-10-08T09:31:57;19.60;99.90
18426;DHT22;9340;48.756;9.226;2023-10-08T09:34:28;19.70;99.90
18426;DHT22;9340;48.756;9.226;2023-10-08T09:36:56;19.80;99.90
18426;DHT22;9340;48.756;9.226;2023-10-08T09:39:27;19.90;99.90
18426;DHT22;9340;48.756;9.226;2023-10-08T09:41:56;20.20;99.90
18426;DHT22;9340;48.756;9.226;2023-10-08T09:44:24;20.50;99.90
18426;DHT22;9340;48.756;9.226;2023-10-08T09:46:54;20.70;99.90
18426;DHT22;9340;48.756;9.226;2023-10-08T09:49:28;20.90;99.90
18426;DHT22;9340;48.756;9.226;2023-10-08T09:51:59;21.10;99.90
18426;DHT22;9340;48.756;9.226;2023-10-08T09:54:29;21.10;99.90
18426;DHT22;9340;48.756;9.226;2023-10-08T09:56:58;21.00;99.90
18426;DHT22;9340;48.756;9.226;2023-10-08T09:59:26;21.00;99.90
18426;DHT22;9340;48.756;9.226;2023-10-08T10:01:54;21.00;99.90
18426;DHT22;9340;48.756;9.226;2023-10-08T10:04:25;21.10;99.90
18426;DHT22;9340;48.756;9.226;2023-10-08T10:06:54;21.10;99.90
18426;DHT22;9340;48.756;9.226;2023-10-08T10:09:24;21.20;99.90
18426;DHT22;9340;48.756;9.226;2023-10-08T10:11:54;21.20;99.90
18426;DHT22;9340;48.756;9.226;2023-10-08T10:14:23;21.20;99.90
18426;DHT22;9340;48.756;9.226;2023-10-08T10:17:08;21.20;99.90
18426;DHT22;9340;48.756;9.226;2023-10-08T10:19:36;21.30;99.90
18426;DHT22;9340;48.756;9.226;2023-10-08T10:22:03;21.30;99.90
18426;DHT22;9340;48.756;9.226;2023-10-08T10:24:33;21.30;99.90
18426;DHT22;9340;48.756;9.226;2023-10-08T10:27:11;21.50;99.90
18426;DHT22;9340;48.756;9.226;2023-10-08T10:29:40;21.80;99.90
18426;DHT22;9340;48.756;9.226;2023-10-08T10:32:10;22.10;99.90
18426;DHT22;9340;48.756;9.226;2023-10-08T10:34:39;22.30;99.90
18426;DHT22;9340;48.756;9.226;2023-10-08T10:37:06;22.40;99.90
18426;DHT22;9340;48.756;9.226;2023-10-08T10:39:35;22.50;99.90
18426;DHT22;9340;48.756;9.226;2023-10-08T10:42:05;22.50;99.90
18426;DHT22;9340;48.756;9.226;2023-10-08T10:44:47;22.50;99.90
18426;DHT22;9340;48.756;9.226;2023-10-08T10:47:16;22.60;99.90
18426;DHT22;9340;48.756;9.226;2023-10-08T10:49:52;22.50;99.90
18426;DHT22;9340;48.756;9.226;2023-10-08T10:52:35;22.50;99.90
18426;DHT22;9340;48.756;9.226;2023-10-08T10:55:11;22.50;99.90
18426;DHT22;9340;48.756;9.226;2023-10-08T10:57:49;22.40;99.90
18426;DHT22;9340;48.756;9.226;2023-10-08T11:00:23;22.20;99.90
18426;DHT22;9340;48.756;9.226;2023-10-08T11:03:07;21.90;99.90
18426;DHT22;9340;48.756;9.226;2023-10-08T11:05:43;21.70;99.90
18426;DHT22;9340;48.756;9.226;2023-10-08T11:08:14;21.70;99.90
18426;DHT22;9340;48.756;9.226;2023-10-08T11:10:44;21.80;99.90
18426;DHT22;9340;48.756;9.226;2023-10-08T11:13:15;21.90;99.90
18426;DHT22;9340;48.756;9.226;2023-10-08T11:15:45;21.90;99.90
18426;DHT22;9340;48.756;9.226;2023-10-08T11:18:16;22.00;99.90
18426;DHT22;9340;48.756;9.226;2023-10-08T11:20:44;22.00;99.90
18426;DHT22;9340;48.756;9.226;2023-10-08T11:23:11;21.90;99.90
18426;DHT22;9340;48.756;9.226;2023-10-08T11:25:57;21.80;99.90
18426;DHT22;9340;48.756;9.226;2023-10-08T11:28:27;21.60;99.90
18426;DHT22;9340;48.756;9.226;2023-10-08T11:30:56;21.60;99.90
18426;DHT22;9340;48.756;9.226;2023-10-08T11:33:28;21.40;99.90
18426;DHT22;9340;48.756;9.226;2023-10-08T11:35:56;21.60;99.90
18426;DHT22;9340;48.756;9.226;2023-10-08T11:38:24;21.70;99.90
18426;DHT22;9340;48.756;9.226;2023-10-08T11:40:53;21.70;99.90
18426;DHT22;9340;48.756;9.226;2023-10-08T11:43:22;21.90;99.90
18426;DHT22;9340;48.756;9.226;2023-10-08T11:45:49;22.00;99.90
18426;DHT22;9340;48.756;9.226;2023-10-08T11:48:17;22.10;99.90
18426;DHT22;9340;48.756;9.226;2023-10-08T11:50:51;22.20;99.90
18426;DHT22;9340;48.756;9.226;2023-10-08T11:53:18;22.30;99.90
18426;DHT22;9340;48.756;9.226;2023-10-08T11:55:45;22.40;99.90
18426;DHT22;9340;48.756;9.226;2023-10-08T11:58:13;22.40;99.90
18426;DHT22;9340;48.756;9.226;2023-10-08T12:00:43;22.40;99.90
18426;DHT22;9340;48.756;9.226;2023-10-08T12:03:11;22.40;99.90
18426;DHT22;9340;48.756;9.226;2023-10-08T12:05:39;22.40;99.90
18426;DHT22;9340;48.756;9.226;2023-10-08T12:08:13;22.50;99.90
18426;DHT22;9340;48.756;9.226;2023-10-08T12:10:42;22.80;99.90
18426;DHT22;9340;48.756;9.226;2023-10-08T12:13:08;23.00;99.90
18426;DHT22;9340;48.756;9.226;2023-10-08T12:15:36;23.30;99.90
18426;DHT22;9340;48.756;9.226;2023-10-08T12:18:05;23.50;99.90
18426;DHT22;9340;48.756;9.226;2023-10-08T12:20:40;23.40;99.90
18426;DHT22;9340;48.756;9.226;2023-10-08T12:23:09;23.30;99.90
18426;DHT22;9340;48.756;9.226;2023-10-08T12:25:37;23.20;99.90
18426;DHT22;9340;48.756;9.226;2023-10-08T12:28:04;23.30;99.90
18426;DHT22;9340;48.756;9.226;2023-10-08T12:30:32;23.10;99.90
18426;DHT22;9340;48.756;9.226;2023-10-08T12:33:07;22.90;99.90
18426;DHT22;9340;48.756;9.226;2023-10-08T12:35:39;22.80;99.90
18426;DHT22;9340;48.756;9.226;2023-10-08T12:38:06;22.70;99.90
18426;DHT22;9340;48.756;9.226;2023-10-08T12:40:34;22.70;99.90
18426;DHT22;9340;48.756;9.226;2023-10-08T12:43:13;22.70;99.90
18426;DHT22;9340;48.756;9.226;2023-10-08T12:45:44;22.70;99.90
18426;DHT22;9340;48.756;9.226;2023-10-08T12:48:20;22.70;99.90
18426;DHT22;9340;48.756;9.226;2023-10-08T12:50:49;22.60;99.90
18426;DHT22;9340;48.756;9.226;2023-10-08T12:53:22;22.80;99.90
18426;DHT22;9340;48.756;9.226;2023-10-08T12:55:52;22.90;99.90
18426;DHT22;9340;48.756;9.226;2023-10-08T12:58:20;23.10;99.90
18426;DHT22;9340;48.756;9.226;2023-10-08T13:00:51;23.30;99.90
18426;DHT22;9340;48.756;9.226;2023-10-08T13:03:23;23.40;99.90
18426;DHT22;9340;48.756;9.226;2023-10-08T13:05:52;23.40;99.90
18426;DHT22;9340;48.756;9.226;2023-10-08T13:08:19;23.40;99.90
18426;DHT22;9340;48.756;9.226;2023-10-08T13:10:46;23.50;99.90
18426;DHT22;9340;48.756;9.226;2023-10-08T13:13:13;23.40;99.90
18426;DHT22;9340;48.756;9.226;2023-10-08T13:15:40;23.40;99.90
18426;DHT22;9340;48.756;9.226;2023-10-08T13:18:08;23.40;99.90
18426;DHT22;9340;48.756;9.226;2023-10-08T13:20:35;23.40;99.90
18426;DHT22;9340;48.756;9.226;2023-10-08T13:23:03;23.40;99.90
18426;DHT22;9340;48.756;9.226;2023-10-08T13:25:30;23.40;99.90
18426;DHT22;9340;48.756;9.226;2023-10-08T13:28:01;23.40;99.90
18426;DHT22;9340;48.756;9.226;2023-10-08T13:30:28;23.40;99.90
18426;DHT22;9340;48.756;9.226;2023-10-08T13:32:55;23.40;99.90
18426;DHT22;9340;48.756;9.226;2023-10-08T13:35:21;23.40;99.90
18426;DHT22;9340;48.756;9.226;2023-10-08T13:37:48;23.40;99.90
18426;DHT22;9340;48.756;9.226;2023-10-08T13:40:16;23.30;99.90
18426;DHT22;9340;48.756;9.226;2023-10-08T13:42:43;23.40;99.90
18426;DHT22;9340;48.756;9.226;2023-10-08T13:45:10;23.30;99.90
18426;DHT22;9340;48.756;9.226;2023-10-08T13:47:51;23.30;99.90
18426;DHT22;9340;48.756;9.226;2023-10-08T13:50:18;23.30;99.90
18426;DHT22;9340;48.756;9.226;2023-10-08T13:52:47;23.30;99.90
18426;DHT22;9340;48.756;9.226;2023-10-08T13:55:14;23.30;99.90
18426;DHT22;9340;48.756;9.226;2023-10-08T13:57:43;23.30;99.90
18426;DHT22;9340;48.756;9.226;2023-10-08T14:00:12;23.30;99.90
18426;DHT22;9340;48.756;9.226;2023-10-08T14:02:41;23.30;99.90
18426;DHT22;9340;48.756;9.226;2023-10-08T14:05:08;23.30;99.90
18426;DHT22;9340;48.756;9.226;2023-10-08T14:07:35;23.40;99.90
18426;DHT22;9340;48.756;9.226;2023-10-08T14:10:04;23.40;99.90
18426;DHT22;9340;48.756;9.226;2023-10-08T14:12:34;23.40;99.90
18426;DHT22;9340;48.756;9.226;2023-10-08T14:15:02;23.30;99.90
18426;DHT22;9340;48.756;9.226;2023-10-08T14:17:32;23.60;99.90
18426;DHT22;9340;48.756;9.226;2023-10-08T14:20:09;23.70;99.90
18426;DHT22;9340;48.756;9.226;2023-10-08T14:22:39;23.70;99.90
18426;DHT22;9340;48.756;9.226;2023-10-08T14:25:08;23.70;99.90
18426;DHT22;9340;48.756;9.226;2023-10-08T14:27:37;23.60;99.90
18426;DHT22;9340;48.756;9.226;2023-10-08T14:30:08;23.60;99.90
18426;DHT22;9340;48.756;9.226;2023-10-08T14:32:41;23.60;99.90
18426;DHT22;9340;48.756;9.226;2023-10-08T14:35:11;23.40;99.90
18426;DHT22;9340;48.756;9.226;2023-10-08T14:37:55;23.30;99.90
18426;DHT22;9340;48.756;9.226;2023-10-08T14:40:39;23.30;99.90
18426;DHT22;9340;48.756;9.226;2023-10-08T14:43:23;23.30;99.90
18426;DHT22;9340;48.756;9.226;2023-10-08T14:45:52;23.30;99.90
18426;DHT22;9340;48.756;9.226;2023-10-08T14:48:19;23.30;99.90
18426;DHT22;9340;48.756;9.226;2023-10-08T14:50:45;23.30;99.90
18426;DHT22;9340;48.756;9.226;2023-10-08T14:53:13;23.30;99.90
18426;DHT22;9340;48.756;9.226;2023-10-08T14:55:40;23.30;99.90
18426;DHT22;9340;48.756;9.226;2023-10-08T14:58:07;23.30;99.90
18426;DHT22;9340;48.756;9.226;2023-10-08T15:00:35;23.20;99.90
18426;DHT22;9340;48.756;9.226;2023-10-08T15:03:04;23.10;99.90
18426;DHT22;9340;48.756;9.226;2023-10-08T15:05:31;23.10;99.90
18426;DHT22;9340;48.756;9.226;2023-10-08T15:07:58;23.00;99.90
18426;DHT22;9340;48.756;9.226;2023-10-08T15:10:25;23.00;99.90
18426;DHT22;9340;48.756;9.226;2023-10-08T15:12:52;22.90;99.90
18426;DHT22;9340;48.756;9.226;2023-10-08T15:15:19;22.90;99.90
18426;DHT22;9340;48.756;9.226;2023-10-08T15:17:48;22.80;99.90
18426;DHT22;9340;48.756;9.226;2023-10-08T15:20:17;22.80;99.90
18426;DHT22;9340;48.756;9.226;2023-10-08T15:22:47;22.80;99.90
18426;DHT22;9340;48.756;9.226;2023-10-08T15:25:16;22.90;99.90
18426;DHT22;9340;48.756;9.226;2023-10-08T15:27:44;22.80;99.90
18426;DHT22;9340;48.756;9.226;2023-10-08T15:30:14;22.80;99.90
18426;DHT22;9340;48.756;9.226;2023-10-08T15:32:42;22.70;99.90
18426;DHT22;9340;48.756;9.226;2023-10-08T15:35:11;22.70;99.90
18426;DHT22;9340;48.756;9.226;2023-10-08T15:37:41;22.60;99.90
18426;DHT22;9340;48.756;9.226;2023-10-08T15:40:09;22.50;99.90
18426;DHT22;9340;48.756;9.226;2023-10-08T15:42:44;22.40;99.90
18426;DHT22;9340;48.756;9.226;2023-10-08T15:45:13;22.40;99.90
18426;DHT22;9340;48.756;9.226;2023-10-08T15:47:40;22.30;99.90
18426;DHT22;9340;48.756;9.226;2023-10-08T15:50:08;22.30;99.90
18426;DHT22;9340;48.756;9.226;2023-10-08T15:52:35;22.20;99.90
18426;DHT22;9340;48.756;9.226;2023-10-08T15:55:04;22.10;99.90
18426;DHT22;9340;48.756;9.226;2023-10-08T15:57:31;22.10;99.90
18426;DHT22;9340;48.756;9.226;2023-10-08T15:59:58;22.00;99.90
18426;DHT22;9340;48.756;9.226;2023-10-08T16:02:25;22.00;99.90
18426;DHT22;9340;48.756;9.226;2023-10-08T16:04:51;21.90;99.90
18426;DHT22;9340;48.756;9.226;2023-10-08T16:07:19;21.80;99.90
18426;DHT22;9340;48.756;9.226;2023-10-08T16:09:46;21.80;99.90